sensor_id;sensor_type;location;lat;lon;timestamp;pressure;altitude;pressure_sealevel;temperature;humidity
20119;BME280;10220;42.716;23.306;2023-11-21T00:02:10;95122.88;;;5.09;100.00
20119;BME280;10220;42.716;23.306;2023-11-21T00:04:35;95120.50;;;4.77;100.00
20119;BME280;10220;42.716;23.306;2023-11-21T00:07:01;95127.56;;;5.05;100.00
20119;BME280;10220;42.716;23.306;2023-11-21T00:09:26;95124.47;;;5.10;100.00
20119;BME280;10220;42.716;23.306;2023-11-21T00:11:52;95116.31;;;5.28;100.00
20119;BME280;10220;42.716;23.306;2023-11-21T00:14:18;95110.16;;;5.15;100.00
20119;BME280;10220;42.716;23.306;2023-11-21T00:16:43;95123.06;;;5.44;100.00
20119;BME280;10220;42.716;23.306;2023-11-21T00:19:08;95110.25;;;5.22;100.00
20119;BME280;10220;42.716;23.306;2023-11-21T00:21:34;95130.06;;;5.13;100.00
20119;BME280;10220;42.716;23.306;2023-11-21T00:23:59;95111.88;;;5.22;100.00
20119;BME280;10220;42.716;23.306;2023-11-21T00:26:25;95122.25;;;5.07;100.00
20119;BME280;10220;42.716;23.306;2023-11-21T00:28:50;95110.19;;;4.85;100.00
20119;BME280;10220;42.716;23.306;2023-11-21T00:31:16;95102.84;;;5.04;100.00
20119;BME280;10220;42.716;23.306;2023-11-21T00:33:41;95108.59;;;5.06;100.00
20119;BME280;10220;42.716;23.306;2023-11-21T00:36:08;95117.06;;;5.15;100.00
20119;BME280;10220;42.716;23.306;2023-11-21T00:38:38;95081.44;;;4.67;100.00
20119;BME280;10220;42.716;23.306;2023-11-21T00:41:06;95109.56;;;4.83;100.00
20119;BME280;10220;42.716;23.306;2023-11-21T00:43:32;95117.56;;;5.10;100.00
20119;BME280;10220;42.716;23.306;2023-11-21T00:45:59;95109.00;;;5.18;100.00
20119;BME280;10220;42.716;23.306;2023-11-21T00:48:24;95112.94;;;5.06;100.00
20119;BME280;10220;42.716;23.306;2023-11-21T00:50:49;95122.91;;;5.01;100.00
20119;BME280;10220;42.716;23.306;2023-11-21T00:53:15;95122.91;;;4.78;100.00
20119;BME280;10220;42.716;23.306;2023-11-21T00:55:41;95078.47;;;4.56;100.00
20119;BME280;10220;42.716;23.306;2023-11-21T00:58:06;95095.09;;;4.60;100.00
20119;BME280;10220;42.716;23.306;2023-11-21T01:00:33;95096.94;;;4.51;100.00
20119;BME280;10220;42.716;23.306;2023-11-21T01:02:59;95098.69;;;4.81;100.00
20119;BME280;10220;42.716;23.306;2023-11-21T01:05:25;95104.13;;;4.86;100.00
20119;BME280;10220;42.716;23.306;2023-11-21T01:07:50;95110.31;;;4.69;100.00
20119;BME280;10220;42.716;23.306;2023-11-21T01:10:15;95110.19;;;4.63;100.00
20119;BME280;10220;42.716;23.306;2023-11-21T01:12:42;95106.44;;;4.35;100.00
20119;BME280;10220;42.716;23.306;2023-11-21T01:15:08;95093.75;;;4.41;100.00
20119;BME280;10220;42.716;23.306;2023-11-21T01:17:34;95099.06;;;4.70;100.00
20119;BME280;10220;42.716;23.306;2023-11-21T01:20:00;95105.16;;;4.69;100.00
20119;BME280;10220;42.716;23.306;2023-11-21T01:22:26;95090.63;;;4.84;100.00
20119;BME280;10220;42.716;23.306;2023-11-21T01:24:54;95106.69;;;5.08;100.00
20119;BME280;10220;42.716;23.306;2023-11-21T01:27:20;95096.97;;;4.96;100.00
20119;BME280;10220;42.716;23.306;2023-11-21T01:29:46;95085.66;;;4.60;100.00
20119;BME280;10220;42.716;23.306;2023-11-21T01:32:11;95095.03;;;4.45;100.00
20119;BME280;10220;42.716;23.306;2023-11-21T01:34:37;95102.34;;;4.56;100.00
20119;BME280;10220;42.716;23.306;2023-11-21T01:37:02;95083.72;;;4.62;100.00
20119;BME280;10220;42.716;23.306;2023-11-21T01:39:30;95099.53;;;4.73;100.00
20119;BME280;10220;42.716;23.306;2023-11-21T01:41:57;95102.63;;;4.91;100.00
20119;BME280;10220;42.716;23.306;2023-11-21T01:44:24;95104.53;;;4.89;100.00
20119;BME280;10220;42.716;23.306;2023-11-21T01:46:50;95116.09;;;4.63;100.00
20119;BME280;10220;42.716;23.306;2023-11-21T01:49:17;95090.06;;;4.44;100.00
20119;BME280;10220;42.716;23.306;2023-11-21T01:51:47;95087.53;;;4.36;100.00
20119;BME280;10220;42.716;23.306;2023-11-21T01:54:14;95084.78;;;4.07;100.00
20119;BME280;10220;42.716;23.306;2023-11-21T01:56:40;95096.66;;;4.08;100.00
20119;BME280;10220;42.716;23.306;2023-11-21T01:59:05;95098.25;;;4.01;100.00
20119;BME280;10220;42.716;23.306;2023-11-21T02:01:33;95064.56;;;3.82;100.00
20119;BME280;10220;42.716;23.306;2023-11-21T02:03:59;95103.84;;;4.05;100.00
20119;BME280;10220;42.716;23.306;2023-11-21T02:06:24;95088.13;;;4.07;100.00
20119;BME280;10220;42.716;23.306;2023-11-21T02:08:51;95088.00;;;5.36;100.00
20119;BME280;10220;42.716;23.306;2023-11-21T02:11:16;95095.09;;;5.85;100.00
20119;BME280;10220;42.716;23.306;2023-11-21T02:13:42;95069.84;;;6.67;100.00
20119;BME280;10220;42.716;23.306;2023-11-21T02:16:09;95069.13;;;7.36;100.00
20119;BME280;10220;42.716;23.306;2023-11-21T02:18:35;95071.72;;;6.94;100.00
20119;BME280;10220;42.716;23.306;2023-11-21T02:21:04;95081.25;;;6.58;100.00
20119;BME280;10220;42.716;23.306;2023-11-21T02:23:29;95074.34;;;7.69;100.00
20119;BME280;10220;42.716;23.306;2023-11-21T02:25:55;95067.56;;;8.70;100.00
20119;BME280;10220;42.716;23.306;2023-11-21T02:28:20;95076.81;;;9.04;100.00
20119;BME280;10220;42.716;23.306;2023-11-21T02:30:51;95072.91;;;8.62;100.00
20119;BME280;10220;42.716;23.306;2023-11-21T02:33:21;95052.78;;;9.10;100.00
20119;BME280;10220;42.716;23.306;2023-11-21T02:35:46;95067.09;;;9.77;100.00
20119;BME280;10220;42.716;23.306;2023-11-21T02:38:12;95053.38;;;10.15;100.00
20119;BME280;10220;42.716;23.306;2023-11-21T02:40:37;95072.84;;;10.18;100.00
20119;BME280;10220;42.716;23.306;2023-11-21T02:43:03;95070.88;;;9.62;100.00
20119;BME280;10220;42.716;23.306;2023-11-21T02:45:31;95074.28;;;9.69;100.00
20119;BME280;10220;42.716;23.306;2023-11-21T02:47:57;95083.44;;;9.65;100.00
20119;BME280;10220;42.716;23.306;2023-11-21T02:50:22;95077.44;;;10.09;100.00
20119;BME280;10220;42.716;23.306;2023-11-21T02:52:48;95033.88;;;10.00;100.00
20119;BME280;10220;42.716;23.306;2023-11-21T02:55:14;95079.47;;;9.75;100.00
20119;BME280;10220;42.716;23.306;2023-11-21T02:57:39;95071.47;;;9.32;100.00
20119;BME280;10220;42.716;23.306;2023-11-21T03:00:05;95066.13;;;9.46;100.00
20119;BME280;10220;42.716;23.306;2023-11-21T03:02:33;95084.44;;;9.96;100.00
20119;BME280;10220;42.716;23.306;2023-11-21T03:04:58;95059.34;;;9.38;100.00
20119;BME280;10220;42.716;23.306;2023-11-21T03:07:24;95074.47;;;9.35;100.00
20119;BME280;10220;42.716;23.306;2023-11-21T03:09:50;95074.88;;;9.58;100.00
20119;BME280;10220;42.716;23.306;2023-11-21T03:12:15;95089.00;;;9.55;100.00
20119;BME280;10220;42.716;23.306;2023-11-21T03:14:41;95075.69;;;9.39;100.00
20119;BME280;10220;42.716;23.306;2023-11-21T03:17:06;95066.91;;;9.66;100.00
20119;BME280;10220;42.716;23.306;2023-11-21T03:19:32;95091.00;;;9.60;100.00
20119;BME280;10220;42.716;23.306;2023-11-21T03:21:57;95061.94;;;9.38;100.00
20119;BME280;10220;42.716;23.306;2023-11-21T03:24:23;95078.66;;;9.62;100.00
20119;BME280;10220;42.716;23.306;2023-11-21T03:26:48;95082.22;;;9.22;100.00
20119;BME280;10220;42.716;23.306;2023-11-21T03:29:14;95092.00;;;8.74;100.00
20119;BME280;10220;42.716;23.306;2023-11-21T03:31:40;95102.16;;;8.28;100.00
20119;BME280;10220;42.716;23.306;2023-11-21T03:34:06;95078.38;;;8.39;100.00
20119;BME280;10220;42.716;23.306;2023-11-21T03:36:31;95072.38;;;7.44;100.00
20119;BME280;10220;42.716;23.306;2023-11-21T03:38:57;95074.22;;;6.88;100.00
20119;BME280;10220;42.716;23.306;2023-11-21T03:41:22;95093.16;;;7.22;100.00
20119;BME280;10220;42.716;23.306;2023-11-21T03:43:48;95072.69;;;7.14;100.00
20119;BME280;10220;42.716;23.306;2023-11-21T03:46:13;95079.56;;;8.10;100.00
20119;BME280;10220;42.716;23.306;2023-11-21T03:48:39;95070.22;;;8.36;100.00
20119;BME280;10220;42.716;23.306;2023-11-21T03:51:04;95044.22;;;8.04;100.00
20119;BME280;10220;42.716;23.306;2023-11-21T03:53:30;95053.53;;;7.71;100.00
20119;BME280;10220;42.716;23.306;2023-11-21T03:55:55;95056.94;;;7.71;100.00
20119;BME280;10220;42.716;23.306;2023-11-21T03:58:21;95067.56;;;8.70;100.00
20119;BME280;10220;42.716;23.306;2023-11-21T04:00:47;95071.22;;;8.41;100.00
20119;BME280;10220;42.716;23.306;2023-11-21T04:03:14;95081.84;;;7.92;100.00
20119;BME280;10220;42.716;23.306;2023-11-21T04:05:40;95050.75;;;7.18;100.00
20119;BME280;10220;42.716;23.306;2023-11-21T04:08:06;95029.44;;;8.18;100.00
20119;BME280;10220;42.716;23.306;2023-11-21T04:10:32;95060.13;;;8.41;100.00
20119;BME280;10220;42.716;23.306;2023-11-21T04:12:57;95060.47;;;7.43;100.00
20119;BME280;10220;42.716;23.306;2023-11-21T04:15:23;95039.63;;;6.20;100.00
20119;BME280;10220;42.716;23.306;2023-11-21T04:17:49;95061.03;;;6.41;100.00
20119;BME280;10220;42.716;23.306;2023-11-21T04:20:14;95060.13;;;8.07;100.00
20119;BME280;10220;42.716;23.306;2023-11-21T04:22:40;95055.38;;;8.44;100.00
20119;BME280;10220;42.716;23.306;2023-11-21T04:25:13;95072.09;;;7.60;100.00
20119;BME280;10220;42.716;23.306;2023-11-21T04:27:40;95067.38;;;8.24;100.00
20119;BME280;10220;42.716;23.306;2023-11-21T04:30:06;95065.13;;;6.71;100.00
20119;BME280;10220;42.716;23.306;2023-11-21T04:32:32;95067.97;;;7.38;100.00
20119;BME280;10220;42.716;23.306;2023-11-21T04:34:58;95067.00;;;5.98;100.00
20119;BME280;10220;42.716;23.306;2023-11-21T04:37:23;95067.44;;;6.31;100.00
20119;BME280;10220;42.716;23.306;2023-11-21T04:39:49;95067.56;;;4.84;100.00
20119;BME280;10220;42.716;23.306;2023-11-21T04:42:15;95075.38;;;5.49;100.00
20119;BME280;10220;42.716;23.306;2023-11-21T04:44:40;95059.28;;;7.18;100.00
20119;BME280;10220;42.716;23.306;2023-11-21T04:47:06;95068.16;;;7.91;100.00
20119;BME280;10220;42.716;23.306;2023-11-21T04:49:33;95058.59;;;7.58;100.00
20119;BME280;10220;42.716;23.306;2023-11-21T04:51:58;95059.41;;;7.58;100.00
20119;BME280;10220;42.716;23.306;2023-11-21T04:54:24;95073.72;;;8.22;100.00
20119;BME280;10220;42.716;23.306;2023-11-21T04:56:49;95073.66;;;8.49;100.00
20119;BME280;10220;42.716;23.306;2023-11-21T04:59:15;95069.47;;;9.01;100.00
20119;BME280;10220;42.716;23.306;2023-11-21T05:01:41;95072.16;;;8.68;100.00
20119;BME280;10220;42.716;23.306;2023-11-21T05:04:06;95067.13;;;8.13;100.00
20119;BME280;10220;42.716;23.306;2023-11-21T05:06:32;95069.78;;;8.73;100.00
20119;BME280;10220;42.716;23.306;2023-11-21T05:08:58;95077.00;;;8.10;100.00
20119;BME280;10220;42.716;23.306;2023-11-21T05:11:29;95071.44;;;8.46;100.00
20119;BME280;10220;42.716;23.306;2023-11-21T05:13:54;95047.03;;;8.49;100.00
20119;BME280;10220;42.716;23.306;2023-11-21T05:16:26;95060.63;;;8.64;100.00
20119;BME280;10220;42.716;23.306;2023-11-21T05:18:53;95052.88;;;7.35;100.00
20119;BME280;10220;42.716;23.306;2023-11-21T05:21:18;95057.72;;;5.97;100.00
20119;BME280;10220;42.716;23.306;2023-11-21T05:23:46;95064.63;;;4.64;100.00
20119;BME280;10220;42.716;23.306;2023-11-21T05:26:11;95060.56;;;5.00;100.00
20119;BME280;10220;42.716;23.306;2023-11-21T05:28:37;95074.81;;;5.39;100.00
20119;BME280;10220;42.716;23.306;2023-11-21T05:31:02;95079.56;;;5.28;100.00
20119;BME280;10220;42.716;23.306;2023-11-21T05:33:27;95089.34;;;5.32;100.00
20119;BME280;10220;42.716;23.306;2023-11-21T05:35:53;95094.81;;;5.07;100.00
20119;BME280;10220;42.716;23.306;2023-11-21T05:38:18;95049.19;;;4.72;100.00
20119;BME280;10220;42.716;23.306;2023-11-21T05:40:44;95087.63;;;5.03;100.00
20119;BME280;10220;42.716;23.306;2023-11-21T05:43:09;95086.44;;;4.91;100.00
20119;BME280;10220;42.716;23.306;2023-11-21T05:45:34;95077.34;;;4.80;100.00
20119;BME280;10220;42.716;23.306;2023-11-21T05:48:00;95094.59;;;4.42;100.00
20119;BME280;10220;42.716;23.306;2023-11-21T05:50:25;95069.78;;;3.96;100.00
20119;BME280;10220;42.716;23.306;2023-11-21T05:52:51;95081.28;;;4.38;100.00
20119;BME280;10220;42.716;23.306;2023-11-21T05:55:16;95082.69;;;3.56;100.00
20119;BME280;10220;42.716;23.306;2023-11-21T05:57:43;95091.03;;;3.27;100.00
20119;BME280;10220;42.716;23.306;2023-11-21T06:00:13;95085.13;;;3.26;100.00
20119;BME280;10220;42.716;23.306;2023-11-21T06:02:45;95089.31;;;3.27;100.00
20119;BME280;10220;42.716;23.306;2023-11-21T06:05:11;95076.56;;;3.73;100.00
20119;BME280;10220;42.716;23.306;2023-11-21T06:07:37;95092.34;;;4.01;100.00
20119;BME280;10220;42.716;23.306;2023-11-21T06:10:04;95087.84;;;4.10;100.00
20119;BME280;10220;42.716;23.306;2023-11-21T06:12:37;95093.22;;;3.77;100.00
20119;BME280;10220;42.716;23.306;2023-11-21T06:15:03;95091.00;;;3.66;100.00
20119;BME280;10220;42.716;23.306;2023-11-21T06:17:50;95089.88;;;3.53;100.00
20119;BME280;10220;42.716;23.306;2023-11-21T06:20:18;95088.94;;;3.54;100.00
20119;BME280;10220;42.716;23.306;2023-11-21T06:22:45;95083.19;;;3.60;100.00
20119;BME280;10220;42.716;23.306;2023-11-21T06:25:12;95096.81;;;4.07;100.00
20119;BME280;10220;42.716;23.306;2023-11-21T06:30:05;95094.19;;;4.22;100.00
20119;BME280;10220;42.716;23.306;2023-11-21T06:32:35;95106.91;;;4.08;100.00
20119;BME280;10220;42.716;23.306;2023-11-21T06:35:04;95100.09;;;4.23;100.00
20119;BME280;10220;42.716;23.306;2023-11-21T06:37:31;95120.44;;;3.70;100.00
20119;BME280;10220;42.716;23.306;2023-11-21T06:39:57;95119.75;;;3.92;100.00
20119;BME280;10220;42.716;23.306;2023-11-21T06:42:24;95123.44;;;3.74;100.00
20119;BME280;10220;42.716;23.306;2023-11-21T06:44:50;95121.41;;;4.15;100.00
20119;BME280;10220;42.716;23.306;2023-11-21T06:47:19;95120.38;;;3.94;100.00
20119;BME280;10220;42.716;23.306;2023-11-21T06:49:46;95131.50;;;3.55;100.00
20119;BME280;10220;42.716;23.306;2023-11-21T06:52:13;95125.88;;;3.75;100.00
20119;BME280;10220;42.716;23.306;2023-11-21T06:54:38;95118.25;;;4.06;100.00
20119;BME280;10220;42.716;23.306;2023-11-21T06:57:04;95114.00;;;3.82;100.00
20119;BME280;10220;42.716;23.306;2023-11-21T06:59:29;95125.38;;;3.80;100.00
20119;BME280;10220;42.716;23.306;2023-11-21T07:01:55;95125.22;;;3.73;100.00
20119;BME280;10220;42.716;23.306;2023-11-21T07:04:20;95101.09;;;3.52;100.00
20119;BME280;10220;42.716;23.306;2023-11-21T07:06:46;95123.31;;;3.75;100.00
20119;BME280;10220;42.716;23.306;2023-11-21T07:09:11;95106.03;;;3.69;100.00
20119;BME280;10220;42.716;23.306;2023-11-21T07:11:37;95110.69;;;4.20;100.00
20119;BME280;10220;42.716;23.306;2023-11-21T07:14:06;95102.03;;;4.21;100.00
20119;BME280;10220;42.716;23.306;2023-11-21T07:16:36;95097.78;;;4.74;100.00
20119;BME280;10220;42.716;23.306;2023-11-21T07:19:04;95097.16;;;4.94;100.00
20119;BME280;10220;42.716;23.306;2023-11-21T07:21:32;95101.38;;;5.10;100.00
20119;BME280;10220;42.716;23.306;2023-11-21T07:23:58;95096.31;;;5.38;100.00
20119;BME280;10220;42.716;23.306;2023-11-21T07:26:24;95097.72;;;5.04;100.00
20119;BME280;10220;42.716;23.306;2023-11-21T07:28:50;95097.13;;;5.39;100.00
20119;BME280;10220;42.716;23.306;2023-11-21T07:31:16;95113.34;;;5.39;100.00
20119;BME280;10220;42.716;23.306;2023-11-21T07:33:41;95122.28;;;5.43;100.00
20119;BME280;10220;42.716;23.306;2023-11-21T07:36:07;95108.16;;;5.62;100.00
20119;BME280;10220;42.716;23.306;2023-11-21T07:38:33;95105.00;;;5.74;100.00
20119;BME280;10220;42.716;23.306;2023-11-21T07:40:58;95101.25;;;5.99;100.00
20119;BME280;10220;42.716;23.306;2023-11-21T07:43:26;95092.19;;;6.03;100.00
20119;BME280;10220;42.716;23.306;2023-11-21T07:45:52;95105.41;;;6.29;100.00
20119;BME280;10220;42.716;23.306;2023-11-21T07:48:17;95111.16;;;6.02;100.00
20119;BME280;10220;42.716;23.306;2023-11-21T07:50:43;95100.97;;;5.94;100.00
20119;BME280;10220;42.716;23.306;2023-11-21T07:53:08;95104.50;;;5.93;100.00
20119;BME280;10220;42.716;23.306;2023-11-21T07:55:34;95093.06;;;5.95;100.00
20119;BME280;10220;42.716;23.306;2023-11-21T07:58:01;95091.13;;;6.12;100.00
20119;BME280;10220;42.716;23.306;2023-11-21T08:00:26;95094.31;;;5.99;100.00
20119;BME280;10220;42.716;23.306;2023-11-21T08:02:55;95103.13;;;5.68;100.00
20119;BME280;10220;42.716;23.306;2023-11-21T08:05:21;95077.56;;;6.18;100.00
20119;BME280;10220;42.716;23.306;2023-11-21T08:07:46;95072.59;;;6.02;100.00
20119;BME280;10220;42.716;23.306;2023-11-21T08:10:12;95070.47;;;6.34;100.00
20119;BME280;10220;42.716;23.306;2023-11-21T08:12:37;95067.28;;;6.18;100.00
20119;BME280;10220;42.716;23.306;2023-11-21T08:15:04;95074.13;;;6.60;100.00
20119;BME280;10220;42.716;23.306;2023-11-21T08:17:30;95093.66;;;6.90;100.00
20119;BME280;10220;42.716;23.306;2023-11-21T08:19:58;95060.50;;;7.01;100.00
20119;BME280;10220;42.716;23.306;2023-11-21T08:22:23;95078.03;;;7.12;100.00
20119;BME280;10220;42.716;23.306;2023-11-21T08:24:50;95077.84;;;7.14;100.00
20119;BME280;10220;42.716;23.306;2023-11-21T08:27:15;95089.16;;;7.13;100.00
20119;BME280;10220;42.716;23.306;2023-11-21T08:29:42;95059.66;;;7.43;100.00
20119;BME280;10220;42.716;23.306;2023-11-21T08:32:07;95090.59;;;7.22;100.00
20119;BME280;10220;42.716;23.306;2023-11-21T08:34:33;95085.72;;;7.54;100.00
20119;BME280;10220;42.716;23.306;2023-11-21T08:36:58;95063.19;;;7.35;100.00
20119;BME280;10220;42.716;23.306;2023-11-21T08:39:24;95062.69;;;7.73;100.00
20119;BME280;10220;42.716;23.306;2023-11-21T08:41:50;95093.59;;;7.46;100.00
20119;BME280;10220;42.716;23.306;2023-11-21T08:44:16;95081.84;;;7.64;100.00
20119;BME280;10220;42.716;23.306;2023-11-21T08:46:43;95078.78;;;7.75;100.00
20119;BME280;10220;42.716;23.306;2023-11-21T08:49:11;95066.72;;;7.82;100.00
20119;BME280;10220;42.716;23.306;2023-11-21T08:51:37;95053.31;;;7.66;100.00
20119;BME280;10220;42.716;23.306;2023-11-21T08:54:03;95059.81;;;7.89;100.00
20119;BME280;10220;42.716;23.306;2023-11-21T08:56:32;95061.56;;;7.82;100.00
20119;BME280;10220;42.716;23.306;2023-11-21T08:58:58;95025.09;;;7.31;100.00
20119;BME280;10220;42.716;23.306;2023-11-21T09:01:25;95050.91;;;7.37;100.00
20119;BME280;10220;42.716;23.306;2023-11-21T09:03:54;95042.13;;;7.86;100.00
20119;BME280;10220;42.716;23.306;2023-11-21T09:06:19;95029.94;;;7.67;100.00
20119;BME280;10220;42.716;23.306;2023-11-21T09:08:45;95017.41;;;7.64;100.00
20119;BME280;10220;42.716;23.306;2023-11-21T09:11:10;95019.88;;;7.79;100.00
20119;BME280;10220;42.716;23.306;2023-11-21T09:13:35;95016.09;;;7.75;100.00
20119;BME280;10220;42.716;23.306;2023-11-21T09:16:02;95004.84;;;7.82;100.00
20119;BME280;10220;42.716;23.306;2023-11-21T09:18:27;94992.47;;;8.05;100.00
20119;BME280;10220;42.716;23.306;2023-11-21T09:20:52;94961.84;;;7.56;100.00
20119;BME280;10220;42.716;23.306;2023-11-21T09:23:18;94984.09;;;7.63;100.00
20119;BME280;10220;42.716;23.306;2023-11-21T09:25:43;94998.09;;;8.21;100.00
20119;BME280;10220;42.716;23.306;2023-11-21T09:28:12;94992.81;;;8.02;100.00
20119;BME280;10220;42.716;23.306;2023-11-21T09:30:38;94957.84;;;8.27;100.00
20119;BME280;10220;42.716;23.306;2023-11-21T09:33:04;94946.28;;;8.17;100.00
20119;BME280;10220;42.716;23.306;2023-11-21T09:35:38;94959.69;;;8.52;100.00
20119;BME280;10220;42.716;23.306;2023-11-21T09:38:04;94959.16;;;8.82;100.00
20119;BME280;10220;42.716;23.306;2023-11-21T09:40:35;94972.22;;;8.62;100.00
20119;BME280;10220;42.716;23.306;2023-11-21T09:43:01;94954.94;;;8.56;100.00
20119;BME280;10220;42.716;23.306;2023-11-21T09:45:35;94918.00;;;8.55;100.00
20119;BME280;10220;42.716;23.306;2023-11-21T09:48:01;94946.22;;;8.70;100.00
20119;BME280;10220;42.716;23.306;2023-11-21T09:50:27;94923.31;;;8.28;100.00
20119;BME280;10220;42.716;23.306;2023-11-21T09:55:18;94910.69;;;8.84;100.00
20119;BME280;10220;42.716;23.306;2023-11-21T09:57:47;94913.47;;;8.89;100.00
20119;BME280;10220;42.716;23.306;2023-11-21T10:00:17;94900.34;;;9.04;100.00
20119;BME280;10220;42.716;23.306;2023-11-21T10:02:46;94905.88;;;9.27;100.00
20119;BME280;10220;42.716;23.306;2023-11-21T10:05:15;94911.03;;;9.33;100.00
20119;BME280;10220;42.716;23.306;2023-11-21T10:07:42;94898.84;;;9.59;100.00
20119;BME280;10220;42.716;23.306;2023-11-21T10:10:10;94889.25;;;9.79;100.00
20119;BME280;10220;42.716;23.306;2023-11-21T10:12:35;94901.56;;;9.84;100.00
20119;BME280;10220;42.716;23.306;2023-11-21T10:15:03;94896.47;;;9.58;100.00
20119;BME280;10220;42.716;23.306;2023-11-21T10:17:33;94870.50;;;9.84;100.00
20119;BME280;10220;42.716;23.306;2023-11-21T10:20:07;94892.16;;;10.02;100.00
20119;BME280;10220;42.716;23.306;2023-11-21T10:22:38;94864.56;;;10.20;100.00
20119;BME280;10220;42.716;23.306;2023-11-21T10:25:04;94869.31;;;10.60;100.00
20119;BME280;10220;42.716;23.306;2023-11-21T10:27:33;94864.28;;;10.35;100.00
20119;BME280;10220;42.716;23.306;2023-11-21T10:30:01;94863.94;;;10.31;100.00
20119;BME280;10220;42.716;23.306;2023-11-21T10:32:28;94868.16;;;10.26;100.00
20119;BME280;10220;42.716;23.306;2023-11-21T10:34:57;94858.38;;;9.78;100.00
20119;BME280;10220;42.716;23.306;2023-11-21T10:37:24;94857.28;;;10.11;100.00
20119;BME280;10220;42.716;23.306;2023-11-21T10:39:50;94851.59;;;10.27;100.00
20119;BME280;10220;42.716;23.306;2023-11-21T10:42:18;94843.84;;;9.90;100.00
20119;BME280;10220;42.716;23.306;2023-11-21T10:44:45;94843.41;;;9.99;100.00
20119;BME280;10220;42.716;23.306;2023-11-21T10:47:11;94859.28;;;10.09;100.00
20119;BME280;10220;42.716;23.306;2023-11-21T10:49:37;94850.66;;;10.21;100.00
20119;BME280;10220;42.716;23.306;2023-11-21T10:52:03;94831.56;;;9.72;100.00
20119;BME280;10220;42.716;23.306;2023-11-21T10:54:29;94814.88;;;9.68;100.00
20119;BME280;10220;42.716;23.306;2023-11-21T10:56:59;94848.81;;;9.85;100.00
20119;BME280;10220;42.716;23.306;2023-11-21T10:59:28;94836.53;;;9.74;100.00
20119;BME280;10220;42.716;23.306;2023-11-21T11:01:57;94841.06;;;10.22;100.00
20119;BME280;10220;42.716;23.306;2023-11-21T11:04:24;94838.78;;;10.38;100.00
20119;BME280;10220;42.716;23.306;2023-11-21T11:06:57;94820.78;;;10.50;100.00
20119;BME280;10220;42.716;23.306;2023-11-21T11:09:27;94814.63;;;10.20;100.00
20119;BME280;10220;42.716;23.306;2023-11-21T11:11:52;94831.28;;;10.30;100.00
20119;BME280;10220;42.716;23.306;2023-11-21T11:14:19;94825.63;;;10.15;100.00
20119;BME280;10220;42.716;23.306;2023-11-21T11:16:45;94814.41;;;10.21;100.00
20119;BME280;10220;42.716;23.306;2023-11-21T11:19:11;94780.72;;;9.97;100.00
20119;BME280;10220;42.716;23.306;2023-11-21T11:21:56;94800.25;;;10.24;100.00
20119;BME280;10220;42.716;23.306;2023-11-21T11:27:20;94798.44;;;10.24;100.00
20119;BME280;10220;42.716;23.306;2023-11-21T11:35:24;94790.50;;;10.50;100.00
20119;BME280;10220;42.716;23.306;2023-11-21T11:37:52;94781.66;;;10.33;100.00
20119;BME280;10220;42.716;23.306;2023-11-21T11:40:18;94779.13;;;10.75;100.00
20119;BME280;10220;42.716;23.306;2023-11-21T11:43:01;94787.34;;;10.48;100.00
20119;BME280;10220;42.716;23.306;2023-11-21T11:45:33;94800.81;;;10.56;100.00
20119;BME280;10220;42.716;23.306;2023-11-21T11:48:01;94794.72;;;10.45;100.00
20119;BME280;10220;42.716;23.306;2023-11-21T11:50:27;94803.09;;;10.47;100.00
20119;BME280;10220;42.716;23.306;2023-11-21T11:52:53;94757.13;;;10.11;100.00
20119;BME280;10220;42.716;23.306;2023-11-21T11:55:23;94798.56;;;10.05;100.00
20119;BME280;10220;42.716;23.306;2023-11-21T11:57:53;94792.03;;;10.33;100.00
20119;BME280;10220;42.716;23.306;2023-11-21T12:00:21;94789.88;;;10.54;100.00
20119;BME280;10220;42.716;23.306;2023-11-21T12:03:08;94788.06;;;10.55;100.00
20119;BME280;10220;42.716;23.306;2023-11-21T12:05:35;94786.84;;;10.09;100.00
20119;BME280;10220;42.716;23.306;2023-11-21T12:08:04;94794.03;;;10.00;100.00
20119;BME280;10220;42.716;23.306;2023-11-21T12:10:35;94814.16;;;9.98;100.00
20119;BME280;10220;42.716;23.306;2023-11-21T12:13:09;94797.75;;;10.11;100.00
20119;BME280;10220;42.716;23.306;2023-11-21T12:15:36;94802.53;;;10.07;100.00
20119;BME280;10220;42.716;23.306;2023-11-21T12:18:02;94775.44;;;9.79;100.00
20119;BME280;10220;42.716;23.306;2023-11-21T12:20:30;94784.59;;;9.82;100.00
20119;BME280;10220;42.716;23.306;2023-11-21T12:22:57;94769.16;;;9.62;100.00
20119;BME280;10220;42.716;23.306;2023-11-21T12:25:29;94768.31;;;9.68;100.00
20119;BME280;10220;42.716;23.306;2023-11-21T12:28:00;94769.75;;;9.64;100.00
20119;BME280;10220;42.716;23.306;2023-11-21T12:30:30;94763.53;;;9.72;100.00
20119;BME280;10220;42.716;23.306;2023-11-21T12:32:57;94770.94;;;9.62;100.00
20119;BME280;10220;42.716;23.306;2023-11-21T12:35:27;94784.78;;;9.36;100.00
20119;BME280;10220;42.716;23.306;2023-11-21T12:37:55;94784.97;;;9.41;100.00
20119;BME280;10220;42.716;23.306;2023-11-21T12:40:23;94761.81;;;9.16;100.00
20119;BME280;10220;42.716;23.306;2023-11-21T12:42:53;94759.09;;;8.98;100.00
20119;BME280;10220;42.716;23.306;2023-11-21T12:45:28;94769.25;;;8.80;100.00
20119;BME280;10220;42.716;23.306;2023-11-21T12:50:26;94749.06;;;8.45;100.00
20119;BME280;10220;42.716;23.306;2023-11-21T12:52:58;94754.81;;;8.60;100.00
20119;BME280;10220;42.716;23.306;2023-11-21T12:55:24;94744.47;;;8.60;100.00
20119;BME280;10220;42.716;23.306;2023-11-21T12:57:55;94746.63;;;8.76;100.00
20119;BME280;10220;42.716;23.306;2023-11-21T13:00:29;94726.41;;;8.60;100.00
20119;BME280;10220;42.716;23.306;2023-11-21T13:02:58;94737.06;;;8.89;100.00